createdAt,value
2022-11-05T00:01:41.954Z,97483.78
2022-11-05T00:04:30.973Z,97487.84
2022-11-05T00:07:21.694Z,97488.66
2022-11-05T00:09:50.651Z,97494.03
2022-11-05T00:12:35.723Z,97495.66
2022-11-05T00:15:21.033Z,97491.84
2022-11-05T00:17:47.642Z,97488.66
2022-11-05T00:20:14.273Z,97489.44
2022-11-05T00:22:59.668Z,97498.09
2022-11-05T00:25:29.864Z,97494.03
2022-11-05T00:28:01.685Z,97492.69
2022-11-05T00:30:30.400Z,97507.47
2022-11-05T00:33:02.660Z,97501.28
2022-11-05T00:35:29.482Z,97505.88
2022-11-05T00:37:56.092Z,97511.00
2022-11-05T00:40:22.814Z,97515.31
2022-11-05T00:43:09.843Z,97513.41
2022-11-05T00:45:37.766Z,97519.34
2022-11-05T00:48:23.724Z,97522.03
2022-11-05T00:50:50.571Z,97524.97
2022-11-05T00:53:17.302Z,97528.22
2022-11-05T00:55:45.872Z,97538.44
2022-11-05T00:58:16.207Z,97537.06
2022-11-05T01:00:45.108Z,97539.56
2022-11-05T01:03:14.641Z,97544.88
2022-11-05T01:05:44.284Z,97540.97
2022-11-05T01:08:11.362Z,97545.16
2022-11-05T01:10:40.954Z,97544.44
2022-11-05T01:13:12.685Z,97550.44
2022-11-05T01:15:42.233Z,97544.28
2022-11-05T01:18:09.013Z,97547.25
2022-11-05T01:20:35.678Z,97546.19
2022-11-05T01:23:02.292Z,97548.34
2022-11-05T01:25:28.992Z,97547.84
2022-11-05T01:27:55.958Z,97550.53
2022-11-05T01:30:22.763Z,97555.91
2022-11-05T01:32:50.907Z,97549.72
2022-11-05T01:35:18.430Z,97552.94
2022-11-05T01:37:45.139Z,97554.81
2022-11-05T01:40:12.978Z,97561.56
2022-11-05T01:42:39.609Z,97561.81
2022-11-05T01:45:14.537Z,97565.06
2022-11-05T01:47:54.442Z,97565.06
2022-11-05T01:50:33.805Z,97567.19
2022-11-05T01:53:06.917Z,97563.69
2022-11-05T01:55:38.271Z,97576.09
2022-11-05T01:58:07.929Z,97581.22
2022-11-05T02:00:35.134Z,97580.94
2022-11-05T02:03:03.728Z,97578.00
2022-11-05T02:05:31.045Z,97583.34
2022-11-05T02:07:57.928Z,97578.25
2022-11-05T02:10:24.683Z,97586.59
2022-11-05T02:12:51.794Z,97584.72
2022-11-05T02:15:27.402Z,97585.50
2022-11-05T02:18:06.344Z,97588.22
2022-11-05T02:20:41.652Z,97583.09
2022-11-05T02:23:53.763Z,97592.00
2022-11-05T02:26:45.541Z,97593.59
2022-11-05T02:29:44.869Z,97584.72
2022-11-05T02:32:22.317Z,97584.97
2022-11-05T02:34:56.783Z,97581.75
2022-11-05T02:37:38.378Z,97587.16
2022-11-05T02:40:12.572Z,97597.91
2022-11-05T02:42:45.338Z,97599.25
2022-11-05T02:45:25.725Z,97609.72
2022-11-05T02:48:03.559Z,97601.94
2022-11-05T02:50:35.168Z,97608.91
2022-11-05T02:53:11.409Z,97610.81
2022-11-05T02:55:42.908Z,97614.84
2022-11-05T02:58:09.695Z,97612.94
2022-11-05T03:00:42.040Z,97614.28
2022-11-05T03:03:15.989Z,97619.44
2022-11-05T03:05:46.244Z,97618.88
2022-11-05T03:08:24.409Z,97622.34
2022-11-05T03:10:59.800Z,97618.59
2022-11-05T03:13:36.996Z,97623.72
2022-11-05T03:16:12.346Z,97628.56
2022-11-05T03:18:46.008Z,97622.63
2022-11-05T03:21:21.215Z,97624.53
2022-11-05T03:23:53.290Z,97630.44
2022-11-05T03:26:25.729Z,97630.72
2022-11-05T03:28:58.949Z,97632.56
2022-11-05T03:31:28.774Z,97632.28
2022-11-05T03:33:59.429Z,97630.16
2022-11-05T03:36:30.720Z,97635.00
2022-11-05T03:39:02.254Z,97633.63
2022-11-05T03:41:29.583Z,97634.19
2022-11-05T03:44:01.562Z,97636.59
2022-11-05T03:46:31.711Z,97642.50
2022-11-05T03:49:03.855Z,97643.84
2022-11-05T03:51:40.003Z,97651.09
2022-11-05T03:54:07.299Z,97662.09
2022-11-05T03:56:41.537Z,97655.91
2022-11-05T03:59:24.334Z,97658.88
2022-11-05T04:01:51.113Z,97661.56
2022-11-05T04:04:19.223Z,97672.03
2022-11-05T04:07:04.638Z,97668.78
2022-11-05T04:09:49.609Z,97664.50
2022-11-05T04:12:34.717Z,97664.75
2022-11-05T04:15:01.511Z,97671.41
2022-11-05T04:17:28.115Z,97671.94
2022-11-05T04:20:14.433Z,97670.88
2022-11-05T04:23:13.559Z,97679.19
2022-11-05T04:25:40.220Z,97686.66
2022-11-05T04:28:06.857Z,97696.88
2022-11-05T04:30:33.521Z,97694.69
2022-11-05T04:33:02.949Z,97703.53
2022-11-05T04:35:32.759Z,97704.09
2022-11-05T04:37:59.783Z,97707.84
2022-11-05T04:40:26.924Z,97706.44
2022-11-05T04:42:54.593Z,97708.34
2022-11-05T04:45:21.379Z,97709.69
2022-11-05T04:47:48.003Z,97709.97
2022-11-05T04:50:14.826Z,97712.63
2022-11-05T04:52:43.069Z,97721.44
2022-11-05T04:55:10.133Z,97717.69
2022-11-05T04:57:37.574Z,97716.88
2022-11-05T05:00:06.108Z,97719.31
2022-11-05T05:02:32.838Z,97726.84
2022-11-05T05:04:59.660Z,97719.63
2022-11-05T05:07:26.598Z,97725.53
2022-11-05T05:09:55.002Z,97726.91
2022-11-05T05:12:21.858Z,97735.19
2022-11-05T05:14:49.229Z,97739.00
2022-11-05T05:17:16.143Z,97742.50
2022-11-05T05:20:01.639Z,97747.34
2022-11-05T05:22:28.635Z,97746.56
2022-11-05T05:24:56.740Z,97745.19
2022-11-05T05:27:23.769Z,97746.03
2022-11-05T05:29:50.606Z,97748.44
2022-11-05T05:32:17.277Z,97756.53
2022-11-05T05:34:44.117Z,97762.13
2022-11-05T05:37:10.760Z,97761.09
2022-11-05T05:39:37.363Z,97760.03
2022-11-05T05:42:05.634Z,97760.63
2022-11-05T05:44:32.301Z,97760.06
2022-11-05T05:46:58.933Z,97760.63
2022-11-05T05:49:25.592Z,97765.44
2022-11-05T05:51:52.384Z,97768.91
2022-11-05T05:54:18.994Z,97762.75
2022-11-05T05:56:45.973Z,97770.53
2022-11-05T05:59:13.956Z,97767.84
2022-11-05T06:01:40.991Z,97771.59
2022-11-05T06:04:09.470Z,97780.22
2022-11-05T06:06:36.097Z,97783.75
2022-11-05T06:09:02.809Z,97788.81
2022-11-05T06:11:29.587Z,97795.56
2022-11-05T06:13:56.405Z,97801.16
2022-11-05T06:16:26.196Z,97803.34
2022-11-05T06:18:52.841Z,97818.13
2022-11-05T06:21:19.589Z,97810.06
2022-11-05T06:23:48.344Z,97810.34
2022-11-05T06:26:16.823Z,97806.81
2022-11-05T06:28:44.389Z,97817.81
2022-11-05T06:31:12.062Z,97811.59
2022-11-05T06:33:40.460Z,97819.06
2022-11-05T06:36:08.659Z,97822.56
2022-11-05T06:38:36.733Z,97825.75
2022-11-05T06:41:09.777Z,97835.66
2022-11-05T06:43:37.120Z,97836.75
2022-11-05T06:46:04.103Z,97837.56
2022-11-05T06:48:31.012Z,97840.78
2022-11-05T06:50:59.080Z,97844.78
2022-11-05T06:53:26.346Z,97843.19
2022-11-05T06:55:53.070Z,97843.97
2022-11-05T06:58:19.786Z,97850.66
2022-11-05T07:00:47.401Z,97856.81
2022-11-05T07:03:15.250Z,97865.72
2022-11-05T07:05:45.213Z,97866.78
2022-11-05T07:08:13.512Z,97869.22
2022-11-05T07:10:40.403Z,97868.41
2022-11-05T07:13:08.720Z,97873.22
2022-11-05T07:15:35.924Z,97879.66
2022-11-05T07:18:02.782Z,97888.28
2022-11-05T07:20:33.955Z,97881.28
2022-11-05T07:23:02.520Z,97891.47
2022-11-05T07:25:32.423Z,97888.28
2022-11-05T07:27:59.300Z,97897.66
2022-11-05T07:30:26.090Z,97902.19
2022-11-05T07:32:52.870Z,97901.69
2022-11-05T07:35:19.629Z,97910.81
2022-11-05T07:37:47.964Z,97918.84
2022-11-05T07:40:18.017Z,97914.03
2022-11-05T07:42:47.536Z,97904.84
2022-11-05T07:45:14.771Z,97906.47
2022-11-05T07:47:46.717Z,97913.94
2022-11-05T07:50:13.857Z,97910.13
2022-11-05T07:52:40.621Z,97911.47
2022-11-05T07:55:08.328Z,97915.97
2022-11-05T07:57:41.009Z,97928.81
2022-11-05T08:00:11.195Z,97929.13
2022-11-05T08:02:37.994Z,97927.75
2022-11-05T08:05:05.617Z,97938.00
2022-11-05T08:07:32.318Z,97943.16
2022-11-05T08:09:59.066Z,97940.75
2022-11-05T08:12:25.724Z,97940.25
2022-11-05T08:14:52.426Z,97936.56
2022-11-05T08:17:20.667Z,97936.06
2022-11-05T08:19:47.462Z,97938.03
2022-11-05T08:22:14.248Z,97938.13
2022-11-05T08:24:40.886Z,97936.84
2022-11-05T08:27:07.854Z,97939.19
2022-11-05T08:29:34.962Z,97940.06
2022-11-05T08:32:01.824Z,97937.69
2022-11-05T08:34:29.972Z,97944.09
2022-11-05T08:36:56.989Z,97943.88
2022-11-05T08:39:23.627Z,97947.97
2022-11-05T08:41:50.441Z,97947.44
2022-11-05T08:44:17.408Z,97947.97
2022-11-05T08:46:44.099Z,97945.03
2022-11-05T08:49:10.819Z,97950.16
2022-11-05T08:51:38.867Z,97951.53
2022-11-05T08:54:05.981Z,97950.44
2022-11-05T08:56:32.603Z,97948.84
2022-11-05T08:58:59.322Z,97956.34
2022-11-05T09:01:26.137Z,97951.78
2022-11-05T09:03:53.025Z,97956.91
2022-11-05T09:06:22.435Z,97953.13
2022-11-05T09:08:50.477Z,97962.09
2022-11-05T09:11:18.184Z,97959.31
2022-11-05T09:13:45.262Z,97961.00
2022-11-05T09:16:22.965Z,97963.50
2022-11-05T09:18:51.432Z,97971.50
2022-11-05T09:21:18.882Z,97969.16
2022-11-05T09:23:46.218Z,97971.13
2022-11-05T09:26:14.595Z,97970.63
2022-11-05T09:28:43.231Z,97965.56
2022-11-05T09:31:11.618Z,97973.13
2022-11-05T09:33:40.376Z,97973.94
2022-11-05T09:36:08.112Z,97978.25
2022-11-05T09:38:35.554Z,97988.28
2022-11-05T09:41:04.827Z,97982.59
2022-11-05T09:43:37.293Z,97996.91
2022-11-05T09:46:12.193Z,97987.19
2022-11-05T09:48:40.542Z,97995.75
2022-11-05T09:51:07.556Z,98002.25
2022-11-05T09:53:39.958Z,98001.50
2022-11-05T09:56:19.144Z,98005.53
2022-11-05T09:58:52.903Z,98001.75
2022-11-05T10:01:24.290Z,98010.94
2022-11-05T10:03:55.897Z,98009.31
2022-11-05T10:06:27.062Z,98008.50
2022-11-05T10:09:14.852Z,98011.47
2022-11-05T10:11:46.326Z,98016.00
2022-11-05T10:14:19.869Z,98016.03
2022-11-05T10:16:51.739Z,98017.09
2022-11-05T10:19:24.351Z,98020.63
2022-11-05T10:22:06.085Z,98024.41
2022-11-05T10:24:33.497Z,98017.94
2022-11-05T10:27:00.226Z,98020.81
2022-11-05T10:29:32.361Z,98020.59
2022-11-05T10:32:01.506Z,98028.97
2022-11-05T10:34:31.888Z,98026.53
2022-11-05T10:36:58.722Z,98031.44
2022-11-05T10:39:27.900Z,98033.59
2022-11-05T10:42:10.900Z,98037.63
2022-11-05T10:44:47.474Z,98035.50
2022-11-05T10:47:39.541Z,98038.19
2022-11-05T10:50:11.058Z,98037.06
2022-11-05T10:52:39.985Z,98034.41
2022-11-05T10:55:15.272Z,98025.78
2022-11-05T10:57:42.900Z,98036.00
2022-11-05T11:00:23.025Z,98024.91
2022-11-05T11:02:51.316Z,98034.13
2022-11-05T11:05:24.777Z,98028.44
2022-11-05T11:08:01.317Z,98038.13
2022-11-05T11:10:30.650Z,98035.94
2022-11-05T11:12:58.035Z,98032.56
2022-11-05T11:15:28.563Z,98031.75
2022-11-05T11:17:56.138Z,98033.75
2022-11-05T11:20:26.397Z,98035.34
2022-11-05T11:23:01.675Z,98030.13
2022-11-05T11:25:30.450Z,98036.47
2022-11-05T11:28:03.674Z,98021.50
2022-11-05T11:30:32.127Z,98022.19
2022-11-05T11:33:06.311Z,98016.97
2022-11-05T11:35:38.091Z,98021.53
2022-11-05T11:38:07.304Z,98020.50
2022-11-05T11:40:36.287Z,98022.28
2022-11-05T11:43:06.579Z,98017.75
2022-11-05T11:45:39.311Z,98017.44
2022-11-05T11:48:08.280Z,98013.38
2022-11-05T11:50:39.312Z,98014.16
2022-11-05T11:53:28.160Z,98010.06
2022-11-05T11:56:13.927Z,98018.06
2022-11-05T11:58:43.905Z,98016.47
2022-11-05T12:01:48.381Z,98013.69
2022-11-05T12:04:46.161Z,98006.66
2022-11-05T12:07:36.226Z,98008.53
2022-11-05T12:10:20.580Z,98005.34
2022-11-05T12:12:57.553Z,98000.41
2022-11-05T12:15:35.370Z,98008.38
2022-11-05T12:18:06.197Z,98012.31
2022-11-05T12:20:48.393Z,98006.78
2022-11-05T12:23:31.727Z,98001.13
2022-11-05T12:26:05.550Z,97998.69
2022-11-05T12:29:04.543Z,97997.19
2022-11-05T12:31:36.966Z,97996.66
2022-11-05T12:34:23.025Z,97999.97
2022-11-05T12:37:11.689Z,97996.66
2022-11-05T12:39:51.186Z,97999.94
2022-11-05T12:42:33.367Z,98002.97
2022-11-05T12:45:04.655Z,98006.81
2022-11-05T12:47:53.502Z,98001.03
2022-11-05T12:50:35.668Z,98001.00
2022-11-05T12:53:23.293Z,98014.75
2022-11-05T12:55:51.734Z,98012.31
2022-11-05T12:58:23.550Z,98014.25
2022-11-05T13:00:56.707Z,98024.81
2022-11-05T13:03:31.894Z,98017.25
2022-11-05T13:06:06.266Z,98022.59
2022-11-05T13:08:39.929Z,98012.53
2022-11-05T13:11:16.557Z,98017.28
2022-11-05T13:13:48.229Z,98010.44
2022-11-05T13:16:24.871Z,98015.25
2022-11-05T13:18:54.948Z,98008.06
2022-11-05T13:21:26.347Z,98024.81
2022-11-05T13:23:57.538Z,98019.19
2022-11-05T13:26:29.474Z,98015.38
2022-11-05T13:29:02.647Z,98008.63
2022-11-05T13:31:32.676Z,98011.09
2022-11-05T13:34:04.235Z,98015.19
2022-11-05T13:36:55.601Z,98015.47
2022-11-05T13:39:25.976Z,98017.09
2022-11-05T13:42:12.557Z,98011.09
2022-11-05T13:44:59.485Z,98009.47
2022-11-05T13:47:46.535Z,98011.38
2022-11-05T13:50:51.861Z,98003.31
2022-11-05T13:53:42.623Z,98005.91
2022-11-05T13:56:21.707Z,98008.72
2022-11-05T13:59:10.325Z,98005.50
2022-11-05T14:01:44.907Z,98010.38
2022-11-05T14:04:20.458Z,98012.56
2022-11-05T14:06:47.309Z,98010.13
2022-11-05T14:09:24.182Z,98006.63
2022-11-05T14:11:53.803Z,98002.84
2022-11-05T14:14:23.737Z,98008.50
2022-11-05T14:16:53.097Z,98003.91
2022-11-05T14:19:35.465Z,98006.63
2022-11-05T14:22:35.531Z,98008.22
2022-11-05T14:25:44.420Z,98004.19
2022-11-05T14:28:41.298Z,97998.78
2022-11-05T14:31:54.584Z,98003.91
2022-11-05T14:34:23.912Z,98004.72
2022-11-05T14:37:20.681Z,98010.94
2022-11-05T14:39:47.889Z,98011.75
2022-11-05T14:42:22.092Z,98012.81
2022-11-05T14:45:20.859Z,98015.78
2022-11-05T14:47:54.980Z,98017.13
2022-11-05T14:50:31.625Z,98022.56
2022-11-05T14:53:04.876Z,98019.84
2022-11-05T14:55:34.922Z,98017.69
2022-11-05T14:58:28.322Z,98020.63
2022-11-05T15:00:56.150Z,98019.84
2022-11-05T15:04:05.851Z,98017.41
2022-11-05T15:06:35.286Z,98025.22
2022-11-05T15:09:25.815Z,98019.81
2022-11-05T15:12:12.372Z,98018.72
2022-11-05T15:14:53.693Z,98025.69
2022-11-05T15:17:23.811Z,98025.13
2022-11-05T15:19:53.054Z,98025.13
2022-11-05T15:22:30.175Z,98027.78
2022-11-05T15:24:58.305Z,98034.50
2022-11-05T15:27:40.457Z,98031.53
2022-11-05T15:30:20.279Z,98036.38
2022-11-05T15:32:47.273Z,98035.53
2022-11-05T15:35:20.012Z,98028.50
2022-11-05T15:37:53.409Z,98027.66
2022-11-05T15:40:26.531Z,98031.38
2022-11-05T15:43:24.508Z,98027.50
2022-11-05T15:46:17.970Z,98025.25
2022-11-05T15:48:49.910Z,98022.22
2022-11-05T15:51:17.693Z,98017.09
2022-11-05T15:56:50.938Z,98011.94
2022-11-05T15:59:20.773Z,98009.69
2022-11-05T16:01:53.012Z,98011.88
2022-11-05T16:04:23.846Z,98008.88
2022-11-05T16:06:54.455Z,98011.56
2022-11-05T16:09:23.343Z,98005.06
2022-11-05T16:12:11.587Z,98012.28
2022-11-05T16:14:38.901Z,98006.06
2022-11-05T16:17:19.634Z,98006.84
2022-11-05T16:19:48.706Z,98014.31
2022-11-05T16:22:15.771Z,98026.13
2022-11-05T16:24:43.327Z,98018.56
2022-11-05T16:27:19.168Z,98015.56
2022-11-05T16:29:50.362Z,98016.50
2022-11-05T16:32:28.524Z,98017.53
2022-11-05T16:35:00.608Z,98020.22
2022-11-05T16:37:28.609Z,98021.47
2022-11-05T16:39:55.760Z,98018.44
2022-11-05T16:42:39.019Z,98031.28
2022-11-05T16:45:08.218Z,98045.28
2022-11-05T16:47:36.467Z,98046.00
2022-11-05T16:50:13.404Z,98047.00
2022-11-05T16:52:40.057Z,98059.06
2022-11-05T16:55:07.220Z,98051.56
2022-11-05T16:57:34.059Z,98056.53
2022-11-05T17:00:01.244Z,98065.63
2022-11-05T17:02:28.483Z,98064.59
2022-11-05T17:04:56.848Z,98066.22
2022-11-05T17:07:23.607Z,98067.34
2022-11-05T17:09:50.445Z,98059.56
2022-11-05T17:12:17.221Z,98062.16
2022-11-05T17:14:44.213Z,98065.13
2022-11-05T17:17:11.629Z,98066.44
2022-11-05T17:19:42.437Z,98062.97
2022-11-05T17:22:10.847Z,98065.72
2022-11-05T17:24:38.897Z,98064.97
2022-11-05T17:27:06.095Z,98066.38
2022-11-05T17:29:33.196Z,98072.19
2022-11-05T17:31:59.973Z,98063.19
2022-11-05T17:34:26.784Z,98063.94
2022-11-05T17:36:53.628Z,98067.69
2022-11-05T17:39:30.335Z,98072.06
2022-11-05T17:41:58.232Z,98077.19
2022-11-05T17:44:25.033Z,98079.38
2022-11-05T17:46:51.944Z,98072.13
2022-11-05T17:49:18.829Z,98062.28
2022-11-05T17:51:45.588Z,98069.28
2022-11-05T17:54:12.253Z,98065.53
2022-11-05T17:56:44.660Z,98058.75
2022-11-05T17:59:11.797Z,98058.75
2022-11-05T18:01:43.151Z,98055.59
2022-11-05T18:04:10.591Z,98062.31
2022-11-05T18:06:38.543Z,98073.44
2022-11-05T18:09:05.922Z,98062.97
2022-11-05T18:11:33.264Z,98070.88
2022-11-05T18:14:01.411Z,98066.84
2022-11-05T18:16:28.044Z,98071.53
2022-11-05T18:18:54.694Z,98075.28
2022-11-05T18:21:21.452Z,98066.97
2022-11-05T18:23:48.098Z,98064.50
2022-11-05T18:26:16.163Z,98077.72
2022-11-05T18:28:43.791Z,98081.97
2022-11-05T18:31:18.053Z,98082.78
2022-11-05T18:33:45.345Z,98079.28
2022-11-05T18:36:16.955Z,98084.97
2022-11-05T18:38:43.624Z,98090.53
2022-11-05T18:41:10.326Z,98082.78
2022-11-05T18:43:36.962Z,98088.41
2022-11-05T18:46:03.667Z,98084.09
2022-11-05T18:48:32.280Z,98094.28
2022-11-05T18:51:01.836Z,98091.91
2022-11-05T18:53:28.828Z,98091.41
2022-11-05T18:55:55.486Z,98097.84
2022-11-05T18:58:22.152Z,98098.09
2022-11-05T19:00:48.816Z,98091.63
2022-11-05T19:03:15.767Z,98087.66
2022-11-05T19:05:43.805Z,98086.59
2022-11-05T19:08:10.836Z,98086.34
2022-11-05T19:10:40.421Z,98090.09
2022-11-05T19:13:07.154Z,98079.34
2022-11-05T19:15:34.167Z,98082.91
2022-11-05T19:18:00.830Z,98090.97
2022-11-05T19:20:28.116Z,98084.53
2022-11-05T19:22:56.279Z,98085.06
2022-11-05T19:25:22.947Z,98085.91
2022-11-05T19:27:49.603Z,98088.03
2022-11-05T19:30:16.264Z,98085.34
2022-11-05T19:32:42.948Z,98086.72
2022-11-05T19:35:09.793Z,98087.75
2022-11-05T19:37:36.468Z,98087.59
2022-11-05T19:40:05.509Z,98090.53
2022-11-05T19:42:32.136Z,98089.16
2022-11-05T19:45:16.742Z,98088.28
2022-11-05T19:47:45.375Z,98092.81
2022-11-05T19:50:12.067Z,98094.41
2022-11-05T19:52:38.716Z,98098.97
2022-11-05T19:55:12.162Z,98100.03
2022-11-05T19:57:39.198Z,98094.84
2022-11-05T20:00:06.915Z,98093.22
2022-11-05T20:02:33.710Z,98091.34
2022-11-05T20:05:00.496Z,98084.53
2022-11-05T20:07:27.396Z,98085.81
2022-11-05T20:09:54.047Z,98083.31
2022-11-05T20:12:22.174Z,98095.69
2022-11-05T20:14:48.845Z,98096.75
2022-11-05T20:17:15.519Z,98094.06
2022-11-05T20:19:42.128Z,98087.97
2022-11-05T20:22:08.865Z,98083.38
2022-11-05T20:24:35.703Z,98082.81
2022-11-05T20:27:02.403Z,98086.06
2022-11-05T20:29:35.318Z,98074.53
2022-11-05T20:32:03.068Z,98078.00
2022-11-05T20:34:31.178Z,98080.28
2022-11-05T20:36:57.976Z,98084.31
2022-11-05T20:39:24.625Z,98089.41
2022-11-05T20:41:53.337Z,98083.13
2022-11-05T20:44:20.136Z,98085.34
2022-11-05T20:46:48.399Z,98085.34
2022-11-05T20:49:18.973Z,98089.41
2022-11-05T20:51:48.001Z,98088.72
2022-11-05T20:54:14.669Z,98090.59
2022-11-05T20:56:42.305Z,98088.78
2022-11-05T20:59:09.068Z,98092.03
2022-11-05T21:01:35.876Z,98088.84
2022-11-05T21:04:04.878Z,98094.28
2022-11-05T21:06:32.797Z,98087.75
2022-11-05T21:08:59.513Z,98097.44
2022-11-05T21:11:26.358Z,98091.91
2022-11-05T21:13:53.306Z,98092.16
2022-11-05T21:16:20.719Z,98091.63
2022-11-05T21:18:47.661Z,98086.53
2022-11-05T21:21:17.835Z,98088.47
2022-11-05T21:23:44.721Z,98080.94
2022-11-05T21:26:13.723Z,98085.56
2022-11-05T21:28:41.487Z,98087.22
2022-11-05T21:31:08.823Z,98078.38
2022-11-05T21:33:35.744Z,98077.56
2022-11-05T21:36:06.790Z,98086.69
2022-11-05T21:38:35.038Z,98079.16
2022-11-05T21:41:03.012Z,98087.00
2022-11-05T21:43:29.781Z,98098.28
2022-11-05T21:46:00.673Z,98091.06
2022-11-05T21:48:27.340Z,98086.47
2022-11-05T21:51:12.752Z,98077.63
2022-11-05T21:53:59.422Z,98089.69
2022-11-05T21:56:45.344Z,98085.63
2022-11-05T21:59:33.136Z,98100.97
2022-11-05T22:02:03.092Z,98093.50
2022-11-05T22:04:30.480Z,98100.50
2022-11-05T22:06:57.540Z,98096.69
2022-11-05T22:09:26.626Z,98098.28
2022-11-05T22:11:53.415Z,98099.88
2022-11-05T22:14:20.547Z,98093.69
2022-11-05T22:16:47.262Z,98093.13
2022-11-05T22:19:14.195Z,98088.81
2022-11-05T22:21:41.464Z,98095.81
2022-11-05T22:24:08.813Z,98100.94
2022-11-05T22:26:37.846Z,98090.44
2022-11-05T22:29:05.163Z,98088.56
2022-11-05T22:31:36.147Z,98090.94
2022-11-05T22:34:05.383Z,98093.31
2022-11-05T22:36:33.323Z,98094.69
2022-11-05T22:39:01.161Z,98097.13
2022-11-05T22:41:30.347Z,98096.53
2022-11-05T22:43:58.755Z,98097.53
2022-11-05T22:46:26.963Z,98102.34
2022-11-05T22:48:54.092Z,98102.59
2022-11-05T22:51:23.054Z,98098.28
2022-11-05T22:53:50.398Z,98091.53
2022-11-05T22:56:19.136Z,98095.81
2022-11-05T22:58:46.091Z,98088.28
2022-11-05T23:01:15.768Z,98090.72
2022-11-05T23:03:44.038Z,98089.84
2022-11-05T23:06:32.388Z,98082.03
2022-11-05T23:09:18.210Z,98089.56
2022-11-05T23:11:46.974Z,98084.22
2022-11-05T23:14:14.017Z,98075.59
2022-11-05T23:17:02.098Z,98086.16
2022-11-05T23:19:47.886Z,98077.53
2022-11-05T23:22:35.282Z,98085.38
2022-11-05T23:25:02.359Z,98079.25
2022-11-05T23:27:30.101Z,98076.84
2022-11-05T23:29:58.793Z,98075.47
2022-11-05T23:32:28.372Z,98080.28
2022-11-05T23:34:56.789Z,98078.09
2022-11-05T23:37:43.933Z,98078.34
2022-11-05T23:40:15.005Z,98082.84
2022-11-05T23:43:00.592Z,98075.84
2022-11-05T23:45:45.832Z,98076.91
2022-11-05T23:48:18.129Z,98065.38
2022-11-05T23:50:47.956Z,98058.28
2022-11-05T23:53:14.696Z,98055.06
2022-11-05T23:55:41.957Z,98045.53
2022-11-05T23:58:09.680Z,98037.41
